Winters, Texas
Current Conditions -  °F | °C
As of 6:58 PM on Wednesday 22 Oct 2014 (Local Time) from KDYS Reporting Station
Overcast Overcast  
Wind Chill: 68°   Ceiling: 6000
Heat Index: 68°   Visibility: 10mi
Dew Point: 58°   Wind: 1mph
Humidity: 70%   Direction: 50°NE
Pressure: 30.1"   Gusts: NA
Location:  31.96°N, 99.96°W
Report Text: KDYS 222358Z AUTO 05001KT 10SM OVC060 20/15 A3010 RMK AO2 SLP164 60002 T02020145 10236 20200 55001
Loading
Personal Weather Stations






























Interactive Weather Map
Tropical Storm Tracking
New forecast layout! Learn more

10-Day Weather Forecast

Advertisements
Track Severe Weather on mobile